Afton, NY

9:21 PM EST on November 20, 2014 (GMT -0500)
East Masonville | Change Station
CLOSE
Current Station
Personal Weather Station
Location: Masonville, NY
Elevation: 1581 ft
Nearby Weather Stations

Elev 1581 ft 42.26 °N, 75.31 °W | Updated 1 minute ago

Partly Cloudy
Partly Cloudy
23.4 °F
Feels Like 23 °F
N
3.0
Wind Variable Wind from WNW
Gusts 17.0 mph

Today
High -- | Low -- °F
--% Chance of Precip.
Yesterday
High -- | Low -- °F
Precip. -- in
6:58 AM 4:36 PM
Waning Crescent, 2% visible
Pressure 29.96 in
Visibility 10.0 miles
Clouds Mostly Cloudy 4900 ft
Windchill 23 °F
Dew Point 10 °F
Humidity 56%
Rainfall 0.00 in
Snow Depth Not available.
UV 0.0 out of 12
Pollen .10 out of 12
Air Quality Not available.
Flu Activity Not available.
METAR KBGM 210153Z 26015G22KT 10SM BKN049 M06/M14 A2989 RMK AO2 SLP144 T10561144

More Conditions Fewer Conditions

Pressure 29.96 in
Visibility 10.0 miles
Clouds Mostly Cloudy 4900 ft
Windchill 23 °F
Dew Point 10 °F
Humidity 56%
Rainfall 0.00 in
Snow Depth Not available.
UV 0.0 out of 12
Pollen .10 out of 12
Air Quality Not available.
Flu Activity Not available.
METAR KBGM 210153Z 26015G22KT 10SM BKN049 M06/M14 A2989 RMK AO2 SLP144 T10561144

More Conditions Fewer Conditions

Nowcast | as of 7:56 PM EST on November 20, 2014

Through 11 PM. Snow showers will continue across The Finger lakes, the western Mohawk Valley, and the upper Susquehanna region. The heavier snow showers could reduce the visibility to a quarter mile, and drop a quick half inch of snowfall. Travelers should be alert to rapidly changing Road conditions this evening.

×

10-Day Weather Forecast

Almanac

Astronomy

Nov. 20, 2014 Rise Set
Actual Time
Civil Twilight
Nautical Twilight
Astronomical Twilight
Moon
Length of Visible Light
Length of Day
Tomorrow will be .
, % of the Moon is Illuminated

Today's Extremes

State Highs State Lows

Community

WunderPhotos

Upload Photos

1,772,586 photos uploaded!

WunderBlogs® & News

Nearby

Air Quality

  Air Quality AQ Index Pollutant
Not available.

Snow Depth

Station Depth Elevation

Earthquake Activity

City Distance Mag. Time & Date
Minimum magnitude displayed is 2.5.

Coastal Water Temperatures

Place Temperature

Nearby Weather Stations